createdAt,value
2023-12-18T00:00:59.251Z,7.17
2023-12-18T00:03:50.891Z,7.23
2023-12-18T00:06:23.573Z,7.25
2023-12-18T00:08:56.144Z,7.27
2023-12-18T00:11:28.789Z,7.27
2023-12-18T00:14:01.196Z,7.30
2023-12-18T00:16:33.726Z,7.30
2023-12-18T00:19:06.780Z,7.36
2023-12-18T00:21:40.018Z,7.40
2023-12-18T00:24:12.598Z,7.44
2023-12-18T00:26:43.700Z,7.47
2023-12-18T00:29:16.318Z,7.42
2023-12-18T00:31:49.137Z,7.44
2023-12-18T00:34:21.890Z,7.50
2023-12-18T00:36:54.581Z,7.47
2023-12-18T00:39:27.145Z,7.45
2023-12-18T00:41:59.906Z,7.48
2023-12-18T00:44:32.397Z,7.53
2023-12-18T00:47:04.757Z,7.56
2023-12-18T00:49:37.763Z,7.56
2023-12-18T00:52:10.684Z,7.56
2023-12-18T00:54:41.425Z,7.57
2023-12-18T00:57:14.319Z,7.55
2023-12-18T00:59:46.857Z,7.57
2023-12-18T01:02:19.320Z,7.59
2023-12-18T01:04:51.825Z,7.58
2023-12-18T01:07:25.062Z,7.59
2023-12-18T01:09:59.753Z,7.64
2023-12-18T01:12:32.542Z,7.68
2023-12-18T01:15:05.295Z,7.70
2023-12-18T01:17:36.867Z,7.70
2023-12-18T01:20:11.241Z,7.69
2023-12-18T01:22:46.717Z,7.66
2023-12-18T01:25:19.624Z,7.64
2023-12-18T01:27:52.279Z,7.72
2023-12-18T01:30:23.444Z,7.68
2023-12-18T01:32:56.020Z,7.65
2023-12-18T01:35:27.609Z,7.66
2023-12-18T01:37:59.811Z,7.71
2023-12-18T01:40:32.649Z,7.72
2023-12-18T01:43:05.211Z,7.76
2023-12-18T01:45:38.213Z,7.75
2023-12-18T01:48:11.389Z,7.78
2023-12-18T01:50:44.042Z,7.76
2023-12-18T01:53:16.730Z,7.73
2023-12-18T01:55:49.282Z,7.72
2023-12-18T01:58:22.079Z,7.70
2023-12-18T02:00:55.716Z,7.71
2023-12-18T02:03:30.014Z,7.70
2023-12-18T02:06:03.566Z,7.67
2023-12-18T02:08:36.760Z,7.67
2023-12-18T02:11:09.573Z,7.71
2023-12-18T02:13:43.030Z,7.72
2023-12-18T02:16:15.802Z,7.76
2023-12-18T02:18:46.795Z,7.80
2023-12-18T02:21:23.573Z,7.80
2023-12-18T02:23:56.059Z,7.78
2023-12-18T02:26:28.848Z,7.74
2023-12-18T02:29:01.125Z,7.74
2023-12-18T02:31:33.605Z,7.74
2023-12-18T02:34:04.550Z,7.73
2023-12-18T02:36:37.151Z,7.73
2023-12-18T02:39:09.681Z,7.76
2023-12-18T02:41:40.487Z,7.77
2023-12-18T02:44:13.250Z,7.80
2023-12-18T02:46:45.760Z,7.80
2023-12-18T02:49:18.168Z,7.83
2023-12-18T02:51:50.310Z,7.81
2023-12-18T02:54:23.028Z,7.83
2023-12-18T02:56:54.032Z,7.83
2023-12-18T02:59:26.563Z,7.78
2023-12-18T03:01:59.067Z,7.85
2023-12-18T03:04:31.306Z,7.81
2023-12-18T03:07:03.784Z,7.87
2023-12-18T03:09:34.649Z,7.88
2023-12-18T03:12:08.258Z,7.92
2023-12-18T03:14:40.688Z,7.94
2023-12-18T03:17:13.443Z,7.93
2023-12-18T03:19:44.107Z,8.01
2023-12-18T03:22:16.397Z,7.97
2023-12-18T03:24:48.561Z,8.01
2023-12-18T03:27:21.200Z,8.00
2023-12-18T03:29:51.958Z,7.96
2023-12-18T03:32:24.990Z,8.04
2023-12-18T03:34:57.395Z,8.02
2023-12-18T03:37:30.018Z,8.05
2023-12-18T03:40:01.004Z,8.06
2023-12-18T03:42:33.464Z,8.03
2023-12-18T03:45:06.835Z,8.05
2023-12-18T03:47:39.210Z,8.02
2023-12-18T03:50:12.498Z,8.08
2023-12-18T03:52:45.126Z,8.07
2023-12-18T03:55:17.824Z,8.07
2023-12-18T03:57:50.293Z,8.09
2023-12-18T04:00:23.172Z,8.04
2023-12-18T04:02:56.062Z,8.07
2023-12-18T04:05:28.840Z,8.09
2023-12-18T04:08:01.253Z,8.08
2023-12-18T04:10:33.731Z,8.11
2023-12-18T04:13:06.351Z,8.12
2023-12-18T04:15:37.117Z,8.12
2023-12-18T04:18:11.189Z,8.10
2023-12-18T04:20:43.798Z,8.12
2023-12-18T04:23:16.138Z,8.16
2023-12-18T04:25:48.547Z,8.18
2023-12-18T04:28:21.189Z,8.19
2023-12-18T04:30:53.748Z,8.17
2023-12-18T04:33:26.562Z,8.19
2023-12-18T04:36:00.281Z,8.15
2023-12-18T04:38:32.812Z,8.15
2023-12-18T04:41:05.416Z,8.08
2023-12-18T04:43:37.750Z,8.13
2023-12-18T04:46:10.262Z,8.11
2023-12-18T04:48:43.233Z,8.13
2023-12-18T04:51:16.034Z,8.16
2023-12-18T04:53:48.778Z,8.14
2023-12-18T04:56:21.388Z,8.18
2023-12-18T04:58:54.265Z,8.19
2023-12-18T05:01:26.553Z,8.18
2023-12-18T05:03:58.667Z,8.21
2023-12-18T05:06:31.808Z,8.14
2023-12-18T05:09:04.233Z,8.13
2023-12-18T05:11:40.135Z,8.14
2023-12-18T05:14:12.530Z,8.12
2023-12-18T05:16:45.124Z,8.16
2023-12-18T05:19:17.826Z,8.13
2023-12-18T05:21:48.841Z,8.12
2023-12-18T05:24:21.583Z,8.14
2023-12-18T05:26:54.525Z,8.11
2023-12-18T05:29:27.035Z,8.12
2023-12-18T05:31:59.558Z,8.10
2023-12-18T05:34:32.126Z,8.12
2023-12-18T05:37:03.723Z,8.11
2023-12-18T05:39:36.391Z,8.14
2023-12-18T05:42:09.796Z,8.11
2023-12-18T05:44:42.316Z,8.09
2023-12-18T05:47:14.845Z,8.08
2023-12-18T05:49:49.297Z,8.08
2023-12-18T05:52:22.869Z,8.09
2023-12-18T05:54:55.006Z,8.08
2023-12-18T05:57:27.397Z,8.05
2023-12-18T05:59:59.706Z,8.07
2023-12-18T06:02:32.280Z,8.04
2023-12-18T06:05:05.208Z,8.07
2023-12-18T06:07:40.466Z,8.10
2023-12-18T06:10:13.572Z,8.08
2023-12-18T06:12:45.878Z,8.06
2023-12-18T06:15:18.440Z,8.07
2023-12-18T06:17:50.849Z,8.05
2023-12-18T06:20:23.461Z,8.03
2023-12-18T06:22:55.810Z,8.05
2023-12-18T06:25:28.243Z,8.05
2023-12-18T06:28:00.635Z,8.12
2023-12-18T06:30:32.845Z,8.10
2023-12-18T06:33:05.598Z,8.09
2023-12-18T06:35:36.396Z,8.04
2023-12-18T06:38:08.701Z,8.04
2023-12-18T06:40:41.090Z,8.04
2023-12-18T06:43:13.542Z,8.03
2023-12-18T06:45:46.185Z,8.09
2023-12-18T06:48:18.829Z,8.07
2023-12-18T06:50:49.927Z,8.03
2023-12-18T06:53:22.456Z,8.05
2023-12-18T06:55:54.921Z,8.05
2023-12-18T06:58:27.615Z,8.02
2023-12-18T07:00:58.715Z,8.03
2023-12-18T07:03:32.766Z,8.05
2023-12-18T07:06:08.154Z,7.98
2023-12-18T07:08:41.906Z,7.96
2023-12-18T07:11:14.728Z,7.99
2023-12-18T07:13:47.137Z,8.04
2023-12-18T07:16:24.593Z,8.00
2023-12-18T07:18:57.823Z,8.01
2023-12-18T07:21:30.437Z,8.01
2023-12-18T07:24:02.733Z,8.00
2023-12-18T07:26:35.021Z,8.06
2023-12-18T07:29:07.392Z,8.06
2023-12-18T07:31:40.331Z,8.08
2023-12-18T07:34:12.680Z,8.06
2023-12-18T07:36:45.057Z,8.06
2023-12-18T07:39:17.476Z,8.01
2023-12-18T07:41:49.648Z,7.97
2023-12-18T07:44:22.031Z,7.97
2023-12-18T07:46:54.374Z,7.96
2023-12-18T07:49:26.893Z,7.99
2023-12-18T07:51:59.436Z,7.99
2023-12-18T07:54:32.073Z,7.95
2023-12-18T07:57:04.096Z,7.92
2023-12-18T07:59:40.558Z,7.91
2023-12-18T08:02:12.842Z,7.90
2023-12-18T08:04:45.418Z,7.91
2023-12-18T08:07:17.983Z,7.90
2023-12-18T08:09:50.622Z,7.95
2023-12-18T08:12:29.638Z,7.96
2023-12-18T08:15:04.526Z,7.93
2023-12-18T08:17:42.078Z,7.92
2023-12-18T08:20:17.104Z,7.98
2023-12-18T08:22:49.584Z,7.99
2023-12-18T08:25:22.487Z,7.97
2023-12-18T08:27:55.025Z,8.00
2023-12-18T08:30:26.102Z,8.03
2023-12-18T08:32:58.637Z,7.94
2023-12-18T08:35:31.790Z,7.86
2023-12-18T08:38:04.211Z,7.89
2023-12-18T08:40:36.546Z,7.97
2023-12-18T08:43:08.932Z,7.91
2023-12-18T08:45:41.490Z,7.92
2023-12-18T08:48:14.426Z,7.90
2023-12-18T08:50:46.809Z,7.87
2023-12-18T08:53:19.307Z,7.84
2023-12-18T08:55:51.800Z,7.86
2023-12-18T08:58:26.491Z,7.90
2023-12-18T09:00:59.110Z,7.96
2023-12-18T09:03:36.301Z,7.98
2023-12-18T09:06:08.934Z,7.94
2023-12-18T09:08:41.389Z,7.92
2023-12-18T09:11:14.074Z,7.93
2023-12-18T09:13:47.096Z,7.98
2023-12-18T09:16:19.844Z,7.94
2023-12-18T09:18:52.949Z,7.91
2023-12-18T09:21:25.519Z,7.95
2023-12-18T09:23:57.789Z,7.97
2023-12-18T09:26:30.435Z,7.99
2023-12-18T09:29:02.976Z,7.94
2023-12-18T09:31:35.396Z,7.93
2023-12-18T09:34:08.298Z,8.03
2023-12-18T09:36:40.797Z,8.00
2023-12-18T09:39:13.398Z,7.95
2023-12-18T09:41:45.739Z,7.96
2023-12-18T09:44:17.979Z,8.03
2023-12-18T09:46:50.398Z,7.99
2023-12-18T09:49:22.816Z,8.01
2023-12-18T09:51:58.827Z,8.02
2023-12-18T09:54:31.512Z,7.98
2023-12-18T09:57:03.838Z,7.95
2023-12-18T09:59:36.492Z,7.97
2023-12-18T10:02:10.823Z,7.94
2023-12-18T10:04:44.867Z,7.95
2023-12-18T10:07:17.650Z,7.95
2023-12-18T10:09:52.275Z,7.99
2023-12-18T10:12:24.946Z,7.98
2023-12-18T10:14:55.797Z,8.06
2023-12-18T10:17:28.105Z,8.11
2023-12-18T10:20:00.667Z,8.07
2023-12-18T10:22:33.380Z,8.08
2023-12-18T10:25:05.798Z,8.05
2023-12-18T10:27:40.084Z,7.99
2023-12-18T10:30:17.976Z,8.04
2023-12-18T10:32:51.861Z,8.07
2023-12-18T10:35:25.137Z,8.04
2023-12-18T10:37:58.226Z,8.05
2023-12-18T10:40:31.178Z,8.08
2023-12-18T10:43:14.230Z,8.07
2023-12-18T10:45:47.711Z,8.01
2023-12-18T10:48:21.589Z,7.99
2023-12-18T10:50:57.124Z,7.99
2023-12-18T10:53:34.788Z,8.02
2023-12-18T10:56:09.945Z,8.02
2023-12-18T10:58:45.140Z,7.97
2023-12-18T11:01:20.917Z,8.02
2023-12-18T11:03:55.612Z,8.03
2023-12-18T11:06:30.233Z,8.03
2023-12-18T11:09:04.529Z,8.04
2023-12-18T11:11:38.903Z,8.06
2023-12-18T11:14:19.108Z,8.05
2023-12-18T11:17:07.669Z,8.09
2023-12-18T11:19:50.161Z,8.09
2023-12-18T11:22:36.941Z,8.15
2023-12-18T11:25:11.015Z,8.10
2023-12-18T11:27:44.902Z,8.10
2023-12-18T11:30:29.749Z,8.06
2023-12-18T11:33:05.190Z,8.06
2023-12-18T11:35:38.887Z,8.10
2023-12-18T11:38:15.226Z,8.20
2023-12-18T11:40:49.675Z,8.14
2023-12-18T11:43:38.878Z,8.12
2023-12-18T11:46:17.770Z,8.14
2023-12-18T11:48:52.886Z,8.07
2023-12-18T11:51:27.524Z,8.02
2023-12-18T11:54:03.070Z,8.00
2023-12-18T11:56:42.576Z,8.03
2023-12-18T11:59:19.454Z,8.03
2023-12-18T12:01:55.460Z,7.99
2023-12-18T12:04:30.399Z,8.02
2023-12-18T12:07:04.025Z,8.04
2023-12-18T12:09:36.241Z,8.02
2023-12-18T12:12:08.029Z,8.07
2023-12-18T12:14:40.756Z,8.08
2023-12-18T12:17:13.264Z,8.09
2023-12-18T12:19:45.703Z,7.99
2023-12-18T12:22:18.227Z,7.90
2023-12-18T12:24:50.692Z,7.89
2023-12-18T12:27:23.353Z,7.89
2023-12-18T12:29:54.343Z,7.86
2023-12-18T12:32:28.036Z,7.85
2023-12-18T12:35:01.174Z,7.84
2023-12-18T12:37:35.081Z,7.82
2023-12-18T12:40:09.234Z,7.79
2023-12-18T12:42:43.341Z,7.82
2023-12-18T12:45:17.043Z,7.82
2023-12-18T12:47:50.144Z,7.84
2023-12-18T12:50:22.713Z,7.81
2023-12-18T12:52:55.091Z,7.81
2023-12-18T12:55:27.617Z,7.86
2023-12-18T12:58:00.687Z,7.83
2023-12-18T13:00:33.112Z,7.87
2023-12-18T13:03:06.481Z,7.84
2023-12-18T13:05:39.303Z,7.85
2023-12-18T13:08:12.934Z,7.87
2023-12-18T13:10:44.996Z,7.86
2023-12-18T13:13:18.684Z,7.86
2023-12-18T13:15:54.280Z,7.84
2023-12-18T13:18:26.750Z,7.93
2023-12-18T13:20:58.943Z,7.91
2023-12-18T13:23:31.648Z,7.89
2023-12-18T13:26:04.009Z,7.85
2023-12-18T13:28:36.239Z,7.86
2023-12-18T13:31:08.455Z,7.85
2023-12-18T13:33:40.839Z,7.83
2023-12-18T13:36:13.439Z,7.80
2023-12-18T13:38:45.877Z,7.73
2023-12-18T13:41:18.328Z,7.64
2023-12-18T13:43:50.925Z,7.57
2023-12-18T13:46:23.238Z,7.50
2023-12-18T13:48:55.793Z,7.53
2023-12-18T13:51:27.564Z,7.52
2023-12-18T13:53:59.953Z,7.53
2023-12-18T13:56:32.615Z,7.52
2023-12-18T13:59:03.378Z,7.56
2023-12-18T14:01:36.074Z,7.57
2023-12-18T14:04:06.890Z,7.58
2023-12-18T14:06:39.882Z,7.65
2023-12-18T14:09:12.282Z,7.77
2023-12-18T14:11:45.105Z,7.75
2023-12-18T14:14:18.584Z,7.77
2023-12-18T14:16:51.262Z,7.79
2023-12-18T14:19:23.726Z,7.79
2023-12-18T14:21:55.933Z,7.78
2023-12-18T14:24:28.354Z,7.76
2023-12-18T14:27:00.775Z,7.76
2023-12-18T14:29:33.107Z,7.72
2023-12-18T14:32:05.658Z,7.71
2023-12-18T14:34:38.104Z,7.78
2023-12-18T14:37:11.383Z,7.81
2023-12-18T14:39:43.687Z,7.81
2023-12-18T14:42:16.317Z,7.93
2023-12-18T14:44:48.625Z,7.91
2023-12-18T14:47:21.056Z,7.94
2023-12-18T14:49:53.639Z,7.90
2023-12-18T14:52:25.544Z,7.97
2023-12-18T14:54:58.071Z,8.05
2023-12-18T14:57:30.573Z,8.05
2023-12-18T15:00:03.671Z,7.98
2023-12-18T15:02:36.432Z,7.92
2023-12-18T15:05:10.128Z,8.09
2023-12-18T15:07:42.914Z,7.94
2023-12-18T15:10:15.221Z,8.06
2023-12-18T15:12:47.793Z,7.97
2023-12-18T15:15:20.426Z,7.95
2023-12-18T15:17:51.166Z,7.96
2023-12-18T15:20:23.759Z,7.96
2023-12-18T15:22:54.738Z,7.97
2023-12-18T15:25:26.973Z,7.87
2023-12-18T15:27:59.801Z,7.83
2023-12-18T15:30:32.605Z,7.80
2023-12-18T15:33:05.447Z,7.79
2023-12-18T15:35:36.372Z,7.80
2023-12-18T15:38:12.204Z,7.83
2023-12-18T15:40:44.842Z,7.82
2023-12-18T15:43:15.897Z,7.78
2023-12-18T15:45:48.373Z,7.77
2023-12-18T15:48:21.109Z,7.79
2023-12-18T15:50:53.824Z,7.79
2023-12-18T15:53:28.472Z,7.74
2023-12-18T15:56:00.885Z,7.75
2023-12-18T15:58:33.465Z,7.81
2023-12-18T16:01:08.640Z,7.85
2023-12-18T16:03:41.519Z,7.91
2023-12-18T16:06:14.636Z,7.99
2023-12-18T16:08:47.146Z,8.01
2023-12-18T16:11:19.775Z,7.92
2023-12-18T16:13:52.080Z,7.83
2023-12-18T16:16:24.653Z,7.83
2023-12-18T16:18:57.705Z,7.92
2023-12-18T16:21:31.768Z,7.98
2023-12-18T16:24:04.228Z,8.06
2023-12-18T16:26:37.189Z,8.03
2023-12-18T16:29:10.194Z,8.08
2023-12-18T16:31:43.188Z,8.15
2023-12-18T16:34:15.778Z,8.15
2023-12-18T16:36:48.427Z,8.09
2023-12-18T16:39:21.197Z,8.11
2023-12-18T16:41:54.117Z,8.10
2023-12-18T16:44:26.767Z,8.16
2023-12-18T16:46:59.358Z,8.16
2023-12-18T16:49:32.119Z,8.14
2023-12-18T16:52:04.962Z,8.17
2023-12-18T16:54:36.249Z,8.15
2023-12-18T16:57:09.064Z,7.95
2023-12-18T16:59:40.526Z,8.00
2023-12-18T17:02:14.426Z,8.08
2023-12-18T17:04:47.677Z,8.10
2023-12-18T17:07:19.904Z,8.08
2023-12-18T17:09:53.267Z,8.14
2023-12-18T17:12:24.566Z,8.02
2023-12-18T17:14:57.073Z,8.02
2023-12-18T17:17:31.016Z,8.06
2023-12-18T17:20:03.863Z,7.93
2023-12-18T17:22:36.218Z,7.98
2023-12-18T17:25:09.615Z,8.03
2023-12-18T17:27:41.908Z,7.99
2023-12-18T17:30:15.169Z,8.03
2023-12-18T17:32:47.858Z,7.97
2023-12-18T17:35:20.418Z,7.99
2023-12-18T17:37:52.914Z,8.05
2023-12-18T17:40:25.313Z,8.11
2023-12-18T17:42:57.350Z,8.09
2023-12-18T17:45:29.560Z,8.09
2023-12-18T17:48:01.949Z,8.11
2023-12-18T17:50:34.098Z,7.98
2023-12-18T17:53:08.763Z,7.97
2023-12-18T17:55:41.566Z,8.07
2023-12-18T17:58:13.606Z,8.03
2023-12-18T18:00:46.093Z,8.01
2023-12-18T18:03:18.622Z,8.07
2023-12-18T18:05:51.253Z,8.13
2023-12-18T18:08:23.561Z,8.16
2023-12-18T18:10:55.883Z,8.19
2023-12-18T18:13:28.085Z,8.11
2023-12-18T18:16:00.922Z,8.16
2023-12-18T18:18:33.319Z,8.20
2023-12-18T18:21:05.875Z,8.18
2023-12-18T18:23:37.158Z,8.13
2023-12-18T18:26:09.536Z,8.11
2023-12-18T18:28:41.822Z,8.14
2023-12-18T18:31:14.299Z,8.18
2023-12-18T18:33:46.764Z,8.20
2023-12-18T18:36:19.724Z,8.24
2023-12-18T18:38:52.155Z,8.21
2023-12-18T18:41:24.341Z,8.19
2023-12-18T18:43:57.321Z,8.25
2023-12-18T18:46:31.682Z,8.26
2023-12-18T18:49:04.950Z,8.29
2023-12-18T18:51:37.376Z,8.25
2023-12-18T18:54:08.357Z,8.25
2023-12-18T18:56:40.976Z,8.26
2023-12-18T18:59:11.729Z,8.23
2023-12-18T19:01:44.155Z,8.22
2023-12-18T19:04:19.906Z,8.24
2023-12-18T19:06:52.384Z,8.25
2023-12-18T19:09:24.776Z,8.23
2023-12-18T19:11:57.470Z,8.22
2023-12-18T19:14:29.754Z,8.18
2023-12-18T19:17:05.202Z,8.15
2023-12-18T19:19:38.138Z,8.18
2023-12-18T19:22:10.261Z,8.19
2023-12-18T19:24:42.461Z,8.19
2023-12-18T19:27:15.138Z,8.20
2023-12-18T19:29:47.669Z,8.16
2023-12-18T19:32:19.970Z,8.08
2023-12-18T19:34:52.312Z,8.10
2023-12-18T19:37:26.848Z,8.10
2023-12-18T19:40:00.241Z,8.17
2023-12-18T19:42:32.949Z,8.18
2023-12-18T19:45:03.770Z,8.20
2023-12-18T19:47:36.238Z,8.23
2023-12-18T19:50:10.032Z,8.15
2023-12-18T19:52:42.836Z,7.98
2023-12-18T19:55:14.089Z,8.07
2023-12-18T19:57:46.741Z,8.09
2023-12-18T20:00:18.343Z,8.11
2023-12-18T20:02:50.715Z,8.01
2023-12-18T20:05:23.279Z,8.04
2023-12-18T20:07:55.777Z,8.10
2023-12-18T20:10:26.630Z,8.11
2023-12-18T20:12:59.104Z,8.07
2023-12-18T20:15:31.310Z,8.08
2023-12-18T20:18:03.860Z,8.12
2023-12-18T20:20:34.839Z,8.16
2023-12-18T20:23:07.216Z,8.18
2023-12-18T20:25:39.590Z,8.15
2023-12-18T20:28:12.157Z,8.10
2023-12-18T20:30:42.965Z,8.11
2023-12-18T20:33:17.889Z,8.28
2023-12-18T20:35:53.494Z,10.20
2023-12-18T20:38:31.396Z,11.10
2023-12-18T20:41:09.476Z,11.64
2023-12-18T20:43:46.543Z,11.79
2023-12-18T20:46:22.329Z,12.08
2023-12-18T20:49:10.935Z,11.99
2023-12-18T20:51:48.741Z,11.55
2023-12-18T20:54:23.549Z,10.69
2023-12-18T20:57:07.034Z,10.05
2023-12-18T21:00:12.538Z,9.47
2023-12-18T21:02:58.760Z,8.97
2023-12-18T21:05:34.449Z,8.87
2023-12-18T21:08:10.892Z,8.87
2023-12-18T21:10:47.219Z,8.82
2023-12-18T21:13:23.804Z,8.68
2023-12-18T21:15:59.745Z,8.64
2023-12-18T21:18:40.246Z,8.60
2023-12-18T21:21:21.700Z,8.56
2023-12-18T21:23:55.102Z,8.51
2023-12-18T21:26:27.413Z,8.34
2023-12-18T21:29:00.122Z,8.30
2023-12-18T21:31:32.647Z,8.33
2023-12-18T21:34:05.153Z,8.28
2023-12-18T21:36:39.043Z,8.29
2023-12-18T21:39:11.290Z,8.26
2023-12-18T21:41:43.559Z,8.26
2023-12-18T21:44:16.366Z,8.22
2023-12-18T21:46:48.704Z,8.06
2023-12-18T21:49:21.151Z,8.08
2023-12-18T21:51:54.192Z,8.03
2023-12-18T21:54:26.714Z,7.96
2023-12-18T21:56:58.312Z,8.01
2023-12-18T21:59:30.638Z,8.04
2023-12-18T22:02:02.971Z,8.07
2023-12-18T22:04:37.694Z,7.89
2023-12-18T22:07:10.854Z,7.91
2023-12-18T22:09:44.185Z,7.83
2023-12-18T22:12:16.873Z,7.86
2023-12-18T22:14:49.309Z,7.87
2023-12-18T22:17:21.732Z,7.89
2023-12-18T22:19:54.355Z,7.86
2023-12-18T22:22:26.678Z,7.72
2023-12-18T22:25:00.559Z,7.72
2023-12-18T22:27:31.795Z,7.73
2023-12-18T22:30:04.984Z,7.64
2023-12-18T22:32:37.509Z,7.67
2023-12-18T22:35:10.516Z,7.74
2023-12-18T22:37:42.777Z,7.78
2023-12-18T22:40:15.888Z,7.77
2023-12-18T22:42:48.341Z,7.67
2023-12-18T22:45:20.959Z,7.61
2023-12-18T22:47:53.502Z,7.63
2023-12-18T22:50:28.331Z,7.67
2023-12-18T22:53:01.105Z,7.61
2023-12-18T22:55:33.415Z,7.50
2023-12-18T22:58:09.257Z,7.57
2023-12-18T23:00:42.108Z,7.55
2023-12-18T23:03:14.582Z,7.58
2023-12-18T23:05:45.663Z,7.59
2023-12-18T23:08:17.780Z,7.49
2023-12-18T23:10:50.400Z,7.47
2023-12-18T23:13:21.145Z,7.42
2023-12-18T23:15:54.481Z,7.40
2023-12-18T23:18:26.983Z,7.39
2023-12-18T23:20:59.433Z,7.22
2023-12-18T23:23:31.923Z,7.02
2023-12-18T23:26:04.642Z,7.05
2023-12-18T23:28:37.040Z,7.12
2023-12-18T23:31:09.267Z,7.17
2023-12-18T23:33:41.821Z,7.16
2023-12-18T23:36:12.839Z,7.02
2023-12-18T23:38:45.180Z,7.06
2023-12-18T23:41:17.613Z,7.00
2023-12-18T23:43:50.018Z,7.08
2023-12-18T23:46:22.717Z,7.09
2023-12-18T23:48:53.539Z,6.87
2023-12-18T23:51:25.979Z,6.86
2023-12-18T23:53:58.291Z,6.93
2023-12-18T23:56:30.398Z,6.94
2023-12-18T23:59:02.688Z,6.90
